Briefing drone pour Brazey-en-plaine

Rechercher une autre localisation

Conditions de vol :


Nous sommes le : Vendredi 25 septembre 2020
Il est 14:43 UTC (16:43 LT)

Lever de soleil : 05:04 UTC (07:04 LT)
Coucher de soleil : 17:57 UTC (19:57 LT)

Météo

L'essentiel des conditions de vol

VIGILANCE MÉTÉO FRANCE - Côte-dOr (21)
Vigilance Jaune : Orages / Vent violent
METAR de LFSD
LFSD 251430Z AUTO 27011KT 230V300 9999 FEW048/// SCT170/// BKN190/// ///CB 14/05 Q1004

Date d'émission: 25/09/2020
Heure d'émission: 14:30 UTC
Vent: 270° (variable du 230° au 300°) pour 11 KT (20 km/h)
Visibilité horizontale: > 10 km
Plafond :
- Peu de nuages à 4800ft (1463m)
- Nuages épars à 17000ft (5182m)
- Nuages morcelés à 19000ft (5791m)
Température: 14 °C
Point de rosée: 5 °C
Humidité: 55%
Pression (QNH): 1004 hPa
TAF de LFSD
LFSD 010600Z 0100/0124 CNL

Conditions prévues :

Heure d'émission : Bulletin éffectué le 01 à 00:00 UTC
Prévision : Valide du 01 a 00:00 UTC au 01 a 23:59 UTC
Nuages : à 0ft (0 m)
WEBCAM POUR BRAZEY-EN-PLAINE

Réglementation

Voler en sécurité

CARTES AERONAUTIQUE 1/500.000
CARTES VAC (LFSD)
SUP AIP




Chargement des AIP...
NOTAM (BRAZEY-EN-PLAINE + Terrain à proximité / FIR )




Chargement des NOTAMS...
CONTACT PREFECTURE 21
Côte-dOr (21) : pref-drone@cote-dor.gouv.fr


Avertissement : Les données mises à disposition sont indicatives. Oxygène Drone ne pourra être tenu responsable de dégâts causés aux biens et aux personnes.